createdAt,value
2023-04-14T00:02:43.614Z,0.80
2023-04-14T00:08:05.721Z,0.80
2023-04-14T00:13:27.670Z,0.45
2023-04-14T00:18:49.808Z,0.52
2023-04-14T00:24:11.617Z,0.50
2023-04-14T00:29:33.510Z,0.60
2023-04-14T00:34:57.245Z,1.10
2023-04-14T00:40:19.251Z,0.70
2023-04-14T00:45:46.213Z,0.60
2023-04-14T00:51:09.437Z,0.57
2023-04-14T00:56:31.938Z,0.52
2023-04-14T01:01:54.257Z,0.47
2023-04-14T01:07:16.165Z,0.55
2023-04-14T01:13:06.564Z,0.50
2023-04-14T01:18:35.105Z,0.40
2023-04-14T01:24:23.505Z,0.30
2023-04-14T01:30:11.336Z,0.40
2023-04-14T01:35:45.612Z,0.32
2023-04-14T01:41:09.848Z,0.47
2023-04-14T01:46:34.546Z,0.30
2023-04-14T01:51:57.142Z,0.57
2023-04-14T01:57:23.171Z,0.30
2023-04-14T02:02:48.469Z,0.45
2023-04-14T02:08:13.471Z,0.50
2023-04-14T02:13:36.284Z,0.50
2023-04-14T02:18:59.683Z,0.60
2023-04-14T02:24:25.318Z,0.50
2023-04-14T02:29:53.850Z,0.38
2023-04-14T02:35:19.108Z,0.30
2023-04-14T02:40:42.687Z,0.30
2023-04-14T02:46:06.717Z,0.35
2023-04-14T02:51:29.795Z,0.40
2023-04-14T02:56:52.405Z,0.50
2023-04-14T03:02:16.495Z,0.40
2023-04-14T03:07:39.395Z,0.80
2023-04-14T03:13:03.882Z,0.30
2023-04-14T03:18:27.353Z,0.30
2023-04-14T03:23:53.118Z,0.40
2023-04-14T03:29:16.780Z,0.30
2023-04-14T03:34:43.260Z,0.38
2023-04-14T03:40:08.248Z,0.25
2023-04-14T03:45:30.190Z,0.40
2023-04-14T03:50:55.289Z,0.43
2023-04-14T03:56:18.077Z,0.40
2023-04-14T04:01:41.796Z,0.45
2023-04-14T04:07:05.224Z,0.30
2023-04-14T04:12:28.394Z,0.30
2023-04-14T04:17:51.727Z,0.50
2023-04-14T04:23:17.338Z,0.30
2023-04-14T04:34:04.261Z,0.50
2023-04-14T04:39:26.534Z,0.40
2023-04-14T04:44:48.348Z,0.35
2023-04-14T04:50:11.101Z,0.50
2023-04-14T04:55:33.000Z,0.50
2023-04-14T05:00:54.982Z,0.40
2023-04-14T05:06:17.002Z,0.30
2023-04-14T05:11:38.944Z,0.40
2023-04-14T05:17:00.733Z,0.30
2023-04-14T05:22:22.582Z,0.38
2023-04-14T05:27:44.525Z,1.10
2023-04-14T05:33:06.693Z,1.10
2023-04-14T05:38:28.677Z,1.00
2023-04-14T05:43:51.017Z,1.20
2023-04-14T05:49:12.864Z,1.35
2023-04-14T05:54:34.684Z,1.40
2023-04-14T05:59:58.201Z,1.20
2023-04-14T06:05:20.382Z,1.15
2023-04-14T06:10:42.283Z,1.50
2023-04-14T06:16:04.273Z,1.73
2023-04-14T06:21:26.305Z,1.40
2023-04-14T06:26:48.172Z,1.48
2023-04-14T06:32:10.206Z,1.60
2023-04-14T06:37:32.567Z,1.55
2023-04-14T06:42:54.492Z,1.40
2023-04-14T06:48:16.385Z,1.52
2023-04-14T06:53:39.128Z,1.50
2023-04-14T06:59:01.086Z,1.80
2023-04-14T07:04:23.332Z,1.60
2023-04-14T07:09:45.283Z,1.80
2023-04-14T07:15:08.045Z,2.72
2023-04-14T07:20:30.585Z,3.15
2023-04-14T07:25:57.432Z,3.67
2023-04-14T07:31:19.335Z,5.70
2023-04-14T07:36:41.345Z,3.45
2023-04-14T07:42:03.283Z,3.40
2023-04-14T07:47:25.138Z,3.47
2023-04-14T07:52:46.975Z,3.30
2023-04-14T07:58:08.849Z,2.60
2023-04-14T08:03:32.459Z,2.22
2023-04-14T08:08:54.612Z,2.88
2023-04-14T08:14:16.532Z,4.53
2023-04-14T08:19:38.382Z,5.00
2023-04-14T08:25:00.233Z,10.50
2023-04-14T08:30:22.435Z,11.77
2023-04-14T08:35:44.378Z,9.85
2023-04-14T08:41:08.969Z,9.85
2023-04-14T08:46:31.677Z,7.93
2023-04-14T08:51:55.105Z,7.43
2023-04-14T08:57:19.950Z,6.55
2023-04-14T09:02:42.878Z,5.43
2023-04-14T09:08:05.061Z,5.50
2023-04-14T09:13:28.761Z,5.30
2023-04-14T09:18:52.074Z,4.50
2023-04-14T09:24:17.250Z,7.07
2023-04-14T09:29:39.681Z,3.83
2023-04-14T09:35:01.726Z,2.88
2023-04-14T09:40:32.755Z,2.72
2023-04-14T09:45:55.727Z,2.40
2023-04-14T09:51:21.320Z,3.05
2023-04-14T09:56:46.286Z,2.70
2023-04-14T10:02:09.368Z,2.08
2023-04-14T10:07:31.665Z,2.50
2023-04-14T10:12:54.351Z,2.00
2023-04-14T10:18:16.438Z,2.05
2023-04-14T10:23:39.705Z,2.10
2023-04-14T10:29:03.119Z,2.72
2023-04-14T10:34:26.193Z,2.30
2023-04-14T10:40:07.444Z,2.53
2023-04-14T10:45:29.468Z,2.70
2023-04-14T10:50:55.845Z,1.88
2023-04-14T10:56:21.859Z,1.98
2023-04-14T11:01:44.281Z,2.10
2023-04-14T11:07:09.833Z,2.13
2023-04-14T11:12:31.887Z,2.55
2023-04-14T11:17:54.617Z,2.90
2023-04-14T11:23:16.845Z,2.58
2023-04-14T11:28:41.162Z,1.73
2023-04-14T11:34:06.991Z,1.52
2023-04-14T11:39:30.223Z,1.75
2023-04-14T11:45:00.401Z,0.98
2023-04-14T11:50:22.408Z,1.48
2023-04-14T11:55:45.388Z,1.73
2023-04-14T12:01:07.355Z,1.60
2023-04-14T12:06:29.363Z,1.02
2023-04-14T12:11:55.979Z,1.75
2023-04-14T12:17:20.497Z,1.60
2023-04-14T12:22:42.393Z,2.10
2023-04-14T12:28:07.073Z,1.98
2023-04-14T12:33:29.943Z,1.90
2023-04-14T12:38:51.830Z,2.53
2023-04-14T12:44:16.057Z,2.42
2023-04-14T12:49:39.090Z,1.85
2023-04-14T12:55:01.008Z,2.45
2023-04-14T13:00:24.448Z,2.70
2023-04-14T13:05:46.466Z,5.00
2023-04-14T13:11:08.320Z,6.43
2023-04-14T13:16:30.165Z,4.95
2023-04-14T13:21:52.122Z,4.15
2023-04-14T13:27:13.930Z,9.48
2023-04-14T13:32:36.114Z,9.77
2023-04-14T13:37:58.734Z,9.18
2023-04-14T13:43:20.622Z,6.63
2023-04-14T13:48:45.494Z,4.15
2023-04-14T13:54:07.322Z,4.67
2023-04-14T13:59:29.232Z,5.65
2023-04-14T14:04:51.094Z,7.05
2023-04-14T14:10:12.946Z,9.82
2023-04-14T14:15:34.846Z,11.80
2023-04-14T14:20:56.799Z,12.40
2023-04-14T14:26:18.672Z,10.30
2023-04-14T14:31:40.648Z,8.00
2023-04-14T14:37:02.549Z,8.35
2023-04-14T14:42:24.385Z,6.13
2023-04-14T14:47:46.519Z,7.25
2023-04-14T14:53:08.336Z,6.00
2023-04-14T14:58:30.423Z,5.68
2023-04-14T15:03:54.740Z,4.55
2023-04-14T15:09:16.824Z,4.68
2023-04-14T15:14:38.684Z,2.90
2023-04-14T15:20:05.295Z,3.00
2023-04-14T15:25:27.169Z,2.45
2023-04-14T15:30:49.255Z,2.22
2023-04-14T15:36:11.509Z,2.38
2023-04-14T15:41:33.380Z,2.40
2023-04-14T15:46:55.415Z,2.53
2023-04-14T15:52:17.249Z,2.72
2023-04-14T15:57:39.125Z,3.15
2023-04-14T16:03:02.330Z,5.82
2023-04-14T16:08:24.447Z,4.15
2023-04-14T16:13:46.381Z,4.03
2023-04-14T16:19:08.578Z,2.92
2023-04-14T16:24:31.009Z,2.53
2023-04-14T16:29:53.129Z,2.45
2023-04-14T16:35:15.073Z,2.40
2023-04-14T16:40:37.675Z,2.38
2023-04-14T16:46:03.996Z,1.98
2023-04-14T16:51:27.678Z,1.90
2023-04-14T16:56:49.582Z,1.92
2023-04-14T17:02:11.571Z,2.15
2023-04-14T17:07:33.893Z,1.80
2023-04-14T17:12:55.761Z,1.90
2023-04-14T17:18:17.725Z,1.70
2023-04-14T17:23:39.636Z,1.38
2023-04-14T17:29:01.650Z,1.67
2023-04-14T17:34:24.227Z,1.50
2023-04-14T17:39:46.929Z,1.83
2023-04-14T17:45:09.381Z,1.20
2023-04-14T17:50:31.349Z,2.15
2023-04-14T17:55:53.564Z,1.55
2023-04-14T18:01:40.939Z,1.10
2023-04-14T18:07:02.913Z,0.90
2023-04-14T18:12:25.508Z,1.00
2023-04-14T18:17:47.376Z,1.15
2023-04-14T18:23:09.414Z,0.90
2023-04-14T18:28:31.794Z,0.77
2023-04-14T18:33:53.776Z,0.98
2023-04-14T18:39:16.623Z,1.25
2023-04-14T18:44:38.666Z,0.75
2023-04-14T18:50:00.646Z,0.75
2023-04-14T18:55:22.574Z,0.80
2023-04-14T19:00:47.483Z,0.60
2023-04-14T19:06:09.296Z,0.77
2023-04-14T19:11:36.110Z,0.63
2023-04-14T19:16:58.311Z,0.75
2023-04-14T19:22:20.390Z,0.73
2023-04-14T19:27:43.391Z,0.60
2023-04-14T19:33:05.455Z,1.08
2023-04-14T19:38:27.720Z,1.35
2023-04-14T19:43:49.646Z,1.10
2023-04-14T19:49:11.908Z,1.13
2023-04-14T19:54:34.147Z,0.80
2023-04-14T19:59:55.941Z,1.20
2023-04-14T20:05:18.132Z,0.80
2023-04-14T20:10:40.404Z,1.00
2023-04-14T20:16:02.371Z,1.08
2023-04-14T20:21:24.408Z,4.15
2023-04-14T20:26:46.810Z,1.40
2023-04-14T20:32:09.666Z,1.02
2023-04-14T20:37:32.313Z,1.25
2023-04-14T20:42:54.706Z,1.10
2023-04-14T20:48:16.542Z,0.95
2023-04-14T20:53:38.536Z,1.00
2023-04-14T20:59:00.493Z,1.20
2023-04-14T21:04:22.650Z,0.73
2023-04-14T21:09:45.046Z,0.88
2023-04-14T21:15:47.421Z,1.95
2023-04-14T21:20:49.319Z,1.15
2023-04-14T21:26:12.149Z,0.95
2023-04-14T21:31:34.014Z,1.10
2023-04-14T21:36:57.684Z,1.65
2023-04-14T21:42:19.457Z,1.13
2023-04-14T21:47:41.635Z,1.33
2023-04-14T21:53:04.370Z,0.93
2023-04-14T21:58:26.275Z,1.08
2023-04-14T22:03:48.308Z,0.95
2023-04-14T22:09:10.488Z,1.20
2023-04-14T22:14:32.346Z,1.30
2023-04-14T22:19:54.104Z,0.90
2023-04-14T22:25:16.997Z,1.35
2023-04-14T22:30:38.951Z,0.90
2023-04-14T22:36:03.802Z,1.08
2023-04-14T22:41:25.677Z,0.70
2023-04-14T22:46:47.490Z,1.13
2023-04-14T22:52:09.248Z,0.90
2023-04-14T22:57:31.254Z,0.85
2023-04-14T23:02:53.973Z,1.05
2023-04-14T23:08:16.027Z,0.80
2023-04-14T23:13:37.811Z,0.73
2023-04-14T23:18:59.880Z,0.57
2023-04-14T23:24:22.620Z,0.82
2023-04-14T23:29:44.460Z,0.85
2023-04-14T23:35:07.207Z,0.90
2023-04-14T23:40:31.249Z,0.77
2023-04-14T23:45:53.205Z,0.85
2023-04-14T23:51:19.208Z,0.50
2023-04-14T23:56:43.803Z,0.57
